Аэропорт: Брянск. Брянск

ICAO: UUBP

METAR:
2019-11-21 09:30:00
UUBP 210930Z 12006MPS 9999 BKN019 M05/M09 Q1044 R16/CLRD70 NOSIG RMK QFE764/1019
METAR:
2019-11-21 07:56:00
TAF UUBP 210756Z 2109/2118 11008G13MPS 9999 BKN015